createdAt,value
2022-08-31T00:01:30.599Z,100498.31
2022-08-31T00:04:03.120Z,100496.66
2022-08-31T00:06:32.036Z,100496.47
2022-08-31T00:09:00.628Z,100498.16
2022-08-31T00:11:31.010Z,100497.59
2022-08-31T00:14:01.348Z,100495.25
2022-08-31T00:16:33.998Z,100492.69
2022-08-31T00:19:03.358Z,100492.75
2022-08-31T00:21:31.349Z,100488.97
2022-08-31T00:23:59.490Z,100489.47
2022-08-31T00:26:29.010Z,100485.09
2022-08-31T00:28:57.254Z,100483.16
2022-08-31T00:31:25.282Z,100484.19
2022-08-31T00:33:53.294Z,100485.53
2022-08-31T00:36:23.581Z,100495.03
2022-08-31T00:38:51.982Z,100491.28
2022-08-31T00:41:22.733Z,100496.72
2022-08-31T00:43:55.323Z,100503.84
2022-08-31T00:46:26.562Z,100501.13
2022-08-31T00:49:00.834Z,100502.16
2022-08-31T00:51:31.089Z,100506.19
2022-08-31T00:54:00.318Z,100513.31
2022-08-31T00:56:31.364Z,100502.31
2022-08-31T00:59:01.167Z,100502.44
2022-08-31T01:01:30.786Z,100502.84
2022-08-31T01:03:59.327Z,100503.25
2022-08-31T01:06:28.358Z,100499.22
2022-08-31T01:08:58.234Z,100500.91
2022-08-31T01:11:26.777Z,100502.91
2022-08-31T01:13:55.037Z,100506.53
2022-08-31T01:16:29.376Z,100509.00
2022-08-31T01:19:00.063Z,100496.88
2022-08-31T01:21:31.016Z,100509.59
2022-08-31T01:24:03.345Z,100513.59
2022-08-31T01:26:34.234Z,100512.06
2022-08-31T01:29:06.234Z,100506.00
2022-08-31T01:31:37.296Z,100501.06
2022-08-31T01:34:05.701Z,100512.75
2022-08-31T01:36:36.782Z,100503.97
2022-08-31T01:39:07.036Z,100505.13
2022-08-31T01:41:35.128Z,100505.47
2022-08-31T01:44:03.638Z,100490.34
2022-08-31T01:46:32.574Z,100496.03
2022-08-31T01:49:01.764Z,100494.63
2022-08-31T01:51:29.848Z,100501.31
2022-08-31T01:53:58.054Z,100498.25
2022-08-31T01:56:31.341Z,100495.03
2022-08-31T01:59:05.099Z,100498.88
2022-08-31T02:01:54.641Z,100502.28
2022-08-31T02:04:25.906Z,100502.50
2022-08-31T02:07:00.622Z,100496.31
2022-08-31T02:09:29.961Z,100498.00
2022-08-31T02:12:01.038Z,100501.91
2022-08-31T02:14:29.274Z,100500.28
2022-08-31T02:16:57.526Z,100505.41
2022-08-31T02:19:25.391Z,100503.03
2022-08-31T02:21:57.007Z,100502.72
2022-08-31T02:24:24.922Z,100510.22
2022-08-31T02:26:53.981Z,100508.16
2022-08-31T02:29:23.914Z,100509.91
2022-08-31T02:31:52.305Z,100512.06
2022-08-31T02:34:20.298Z,100521.84
2022-08-31T02:36:48.778Z,100521.44
2022-08-31T02:39:17.458Z,100523.34
2022-08-31T02:41:46.085Z,100517.94
2022-08-31T02:44:14.017Z,100523.16
2022-08-31T02:46:43.833Z,100525.78
2022-08-31T02:49:24.583Z,100527.41
2022-08-31T02:51:55.307Z,100531.69
2022-08-31T02:54:23.683Z,100535.81
2022-08-31T02:56:52.990Z,100527.16
2022-08-31T02:59:21.137Z,100528.78
2022-08-31T03:01:52.852Z,100529.63
2022-08-31T03:04:21.044Z,100525.06
2022-08-31T03:06:49.075Z,100529.50
2022-08-31T03:09:17.258Z,100530.56
2022-08-31T03:11:45.386Z,100528.38
2022-08-31T03:14:13.352Z,100529.56
2022-08-31T03:16:41.623Z,100528.50
2022-08-31T03:19:11.360Z,100537.28
2022-08-31T03:21:39.323Z,100533.66
2022-08-31T03:24:07.968Z,100531.56
2022-08-31T03:26:36.182Z,100534.06
2022-08-31T03:29:05.502Z,100527.72
2022-08-31T03:31:54.646Z,100531.53
2022-08-31T03:34:24.507Z,100529.41
2022-08-31T03:36:52.555Z,100524.72
2022-08-31T03:39:21.017Z,100518.47
2022-08-31T03:41:49.313Z,100523.75
2022-08-31T03:44:23.767Z,100528.66
2022-08-31T03:46:55.256Z,100527.94
2022-08-31T03:49:26.781Z,100532.50
2022-08-31T03:52:16.350Z,100538.06
2022-08-31T03:54:48.241Z,100538.75
2022-08-31T03:57:16.440Z,100535.28
2022-08-31T03:59:44.362Z,100544.84
2022-08-31T04:02:22.075Z,100547.28
2022-08-31T04:05:13.289Z,100548.84
2022-08-31T04:08:00.531Z,100548.97
2022-08-31T04:10:48.592Z,100551.28
2022-08-31T04:13:29.887Z,100546.81
2022-08-31T04:16:19.931Z,100555.69
2022-08-31T04:19:07.976Z,100557.22
2022-08-31T04:21:44.152Z,100565.06
2022-08-31T04:24:14.205Z,100559.66
2022-08-31T04:26:43.555Z,100552.81
2022-08-31T04:29:13.656Z,100556.63
2022-08-31T04:31:42.822Z,100560.84
2022-08-31T04:34:11.026Z,100563.50
2022-08-31T04:36:39.188Z,100563.50
2022-08-31T04:39:09.775Z,100563.38
2022-08-31T04:41:39.955Z,100572.63
2022-08-31T04:44:12.331Z,100580.03
2022-08-31T04:46:43.314Z,100567.94
2022-08-31T04:49:14.696Z,100569.09
2022-08-31T04:51:43.157Z,100568.78
2022-08-31T04:54:14.942Z,100569.75
2022-08-31T04:56:45.637Z,100574.00
2022-08-31T04:59:26.237Z,100578.16
2022-08-31T05:02:16.685Z,100575.41
2022-08-31T05:04:58.146Z,100573.53
2022-08-31T05:07:26.604Z,100580.06
2022-08-31T05:09:58.313Z,100585.34
2022-08-31T05:12:26.297Z,100583.66
2022-08-31T05:14:54.274Z,100586.28
2022-08-31T05:17:25.493Z,100587.00
2022-08-31T05:19:54.177Z,100593.53
2022-08-31T05:22:22.367Z,100592.22
2022-08-31T05:24:53.217Z,100591.59
2022-08-31T05:27:22.488Z,100588.84
2022-08-31T05:29:50.637Z,100584.63
2022-08-31T05:32:53.958Z,100592.22
2022-08-31T05:35:21.906Z,100590.31
2022-08-31T05:37:51.825Z,100592.63
2022-08-31T05:40:21.203Z,100603.53
2022-08-31T05:42:50.649Z,100600.03
2022-08-31T05:45:18.869Z,100606.66
2022-08-31T05:47:48.982Z,100608.72
2022-08-31T05:50:18.552Z,100611.91
2022-08-31T05:52:47.262Z,100610.78
2022-08-31T05:55:15.566Z,100606.69
2022-08-31T05:57:43.720Z,100620.31
2022-08-31T06:00:13.998Z,100615.69
2022-08-31T06:02:44.555Z,100614.91
2022-08-31T06:05:15.139Z,100620.41
2022-08-31T06:07:46.985Z,100625.16
2022-08-31T06:10:17.147Z,100621.72
2022-08-31T06:12:47.335Z,100620.31
2022-08-31T06:15:21.094Z,100626.41
2022-08-31T06:17:49.371Z,100627.22
2022-08-31T06:20:18.382Z,100628.50
2022-08-31T06:22:48.683Z,100630.53
2022-08-31T06:25:33.837Z,100635.28
2022-08-31T06:28:02.320Z,100633.47
2022-08-31T06:30:32.803Z,100630.59
2022-08-31T06:33:01.967Z,100641.91
2022-08-31T06:35:40.155Z,100645.38
2022-08-31T06:38:32.798Z,100646.47
2022-08-31T06:41:22.659Z,100640.91
2022-08-31T06:44:23.957Z,100648.50
2022-08-31T06:47:13.616Z,100652.22
2022-08-31T06:49:43.288Z,100652.97
2022-08-31T06:52:11.302Z,100651.03
2022-08-31T06:54:42.299Z,100654.53
2022-08-31T06:57:29.412Z,100650.53
2022-08-31T07:00:38.117Z,100654.75
2022-08-31T07:03:24.347Z,100663.19
2022-08-31T07:05:58.219Z,100663.97
2022-08-31T07:08:26.398Z,100664.00
2022-08-31T07:10:54.509Z,100665.25
2022-08-31T07:13:22.536Z,100668.44
2022-08-31T07:15:50.817Z,100669.84
2022-08-31T07:18:18.859Z,100668.56
2022-08-31T07:20:48.879Z,100671.69
2022-08-31T07:23:17.988Z,100675.28
2022-08-31T07:25:58.734Z,100671.22
2022-08-31T07:28:29.050Z,100680.00
2022-08-31T07:30:57.133Z,100681.00
2022-08-31T07:33:25.127Z,100688.44
2022-08-31T07:36:00.560Z,100694.91
2022-08-31T07:38:54.132Z,100703.09
2022-08-31T07:41:40.539Z,100711.16
2022-08-31T07:44:10.033Z,100714.03
2022-08-31T07:46:40.165Z,100720.91
2022-08-31T07:49:13.870Z,100725.47
2022-08-31T07:52:11.373Z,100730.00
2022-08-31T07:55:07.966Z,100738.59
2022-08-31T07:57:53.367Z,100726.44
2022-08-31T08:00:23.519Z,100727.19
2022-08-31T08:02:53.832Z,100722.31
2022-08-31T08:05:32.519Z,100716.84
2022-08-31T08:08:43.573Z,100712.59
2022-08-31T08:11:22.023Z,100708.63
2022-08-31T08:14:15.131Z,100708.88
2022-08-31T08:17:10.293Z,100708.03
2022-08-31T08:19:45.946Z,100706.88
2022-08-31T08:22:26.128Z,100700.72
2022-08-31T08:25:45.336Z,100704.97
2022-08-31T08:31:18.224Z,100704.06
2022-08-31T08:33:47.486Z,100702.28
2022-08-31T08:36:18.333Z,100707.78
2022-08-31T08:38:50.472Z,100715.38
2022-08-31T08:41:23.042Z,100715.66
2022-08-31T08:43:53.767Z,100713.22
2022-08-31T08:47:38.016Z,100719.25
2022-08-31T08:49:26.071Z,100718.72
2022-08-31T08:51:59.384Z,100720.88
2022-08-31T08:54:33.854Z,100726.78
2022-08-31T08:57:14.376Z,100733.91
2022-08-31T08:59:44.658Z,100720.84
2022-08-31T09:02:20.020Z,100728.47
2022-08-31T09:05:12.818Z,100732.09
2022-08-31T09:08:10.532Z,100737.47
2022-08-31T09:10:45.611Z,100730.75
2022-08-31T09:13:25.629Z,100727.63
2022-08-31T09:16:10.026Z,100722.91
2022-08-31T09:18:46.762Z,100730.47
2022-08-31T09:21:23.721Z,100721.53
2022-08-31T09:24:01.574Z,100732.28
2022-08-31T09:26:35.602Z,100727.34
2022-08-31T09:29:24.717Z,100724.22
2022-08-31T09:32:05.975Z,100723.38
2022-08-31T09:34:37.643Z,100733.16
2022-08-31T09:37:16.553Z,100736.56
2022-08-31T09:39:47.578Z,100743.72
2022-08-31T09:42:29.019Z,100750.03
2022-08-31T09:45:00.854Z,100739.06
2022-08-31T09:47:48.568Z,100734.31
2022-08-31T09:50:31.627Z,100735.91
2022-08-31T09:53:38.899Z,100737.59
2022-08-31T09:56:19.777Z,100741.28
2022-08-31T09:58:50.932Z,100739.59
2022-08-31T10:01:29.858Z,100728.50
2022-08-31T10:04:18.795Z,100733.78
2022-08-31T10:06:55.299Z,100731.06
2022-08-31T10:09:33.290Z,100735.88
2022-08-31T10:12:05.678Z,100724.84
2022-08-31T10:14:41.237Z,100727.25
2022-08-31T10:17:15.330Z,100736.84
2022-08-31T10:19:53.304Z,100741.38
2022-08-31T10:22:33.385Z,100735.00
2022-08-31T10:25:12.061Z,100736.75
2022-08-31T10:27:45.137Z,100733.66
2022-08-31T10:30:23.885Z,100721.47
2022-08-31T10:32:58.890Z,100729.97
2022-08-31T10:35:36.323Z,100725.00
2022-08-31T10:38:20.262Z,100733.53
2022-08-31T10:40:53.992Z,100724.31
2022-08-31T10:43:26.788Z,100734.16
2022-08-31T10:46:00.585Z,100734.16
2022-08-31T10:48:30.303Z,100736.38
2022-08-31T10:51:09.190Z,100742.50
2022-08-31T10:53:57.770Z,100741.03
2022-08-31T10:56:39.834Z,100736.94
2022-08-31T10:59:18.683Z,100729.69
2022-08-31T11:01:58.118Z,100734.88
2022-08-31T11:04:51.880Z,100744.97
2022-08-31T11:07:36.898Z,100740.53
2022-08-31T11:10:22.232Z,100745.72
2022-08-31T11:12:57.861Z,100742.00
2022-08-31T11:15:58.904Z,100743.50
2022-08-31T11:19:09.321Z,100744.13
2022-08-31T11:22:06.298Z,100741.81
2022-08-31T11:24:49.223Z,100726.72
2022-08-31T11:27:24.640Z,100732.44
2022-08-31T11:29:58.210Z,100725.91
2022-08-31T11:32:34.221Z,100731.16
2022-08-31T11:35:10.154Z,100731.59
2022-08-31T11:37:59.705Z,100730.63
2022-08-31T11:41:10.883Z,100724.53
2022-08-31T11:43:48.993Z,100728.63
2022-08-31T11:46:42.961Z,100733.38
2022-08-31T11:49:34.591Z,100733.72
2022-08-31T11:52:11.120Z,100723.38
2022-08-31T11:55:07.941Z,100723.44
2022-08-31T11:58:21.057Z,100718.88
2022-08-31T12:00:57.447Z,100717.59
2022-08-31T12:03:52.403Z,100723.81
2022-08-31T12:07:09.310Z,100732.78
2022-08-31T12:09:54.290Z,100731.09
2022-08-31T12:12:34.526Z,100735.38
2022-08-31T12:15:15.672Z,100747.03
2022-08-31T12:17:56.991Z,100739.72
2022-08-31T12:20:32.488Z,100737.50
2022-08-31T12:23:37.694Z,100742.97
2022-08-31T12:26:48.473Z,100738.97
2022-08-31T12:29:26.716Z,100743.19
2022-08-31T12:32:10.920Z,100745.09
2022-08-31T12:34:46.787Z,100732.13
2022-08-31T12:37:20.595Z,100727.13
2022-08-31T12:39:48.711Z,100726.25
2022-08-31T12:42:16.657Z,100726.44
2022-08-31T12:44:52.434Z,100727.31
2022-08-31T12:47:30.620Z,100729.44
2022-08-31T12:50:13.955Z,100721.16
2022-08-31T12:53:24.398Z,100720.16
2022-08-31T12:56:00.442Z,100723.50
2022-08-31T12:58:51.407Z,100721.59
2022-08-31T13:01:24.097Z,100717.28
2022-08-31T13:03:57.886Z,100712.84
2022-08-31T13:06:27.970Z,100711.53
2022-08-31T13:08:56.366Z,100707.50
2022-08-31T13:11:35.116Z,100691.94
2022-08-31T13:14:18.347Z,100700.81
2022-08-31T13:16:49.903Z,100693.50
2022-08-31T13:19:25.748Z,100685.44
2022-08-31T13:21:58.136Z,100675.44
2022-08-31T13:24:32.679Z,100680.63
2022-08-31T13:27:05.870Z,100671.75
2022-08-31T13:29:41.070Z,100673.19
2022-08-31T13:32:10.659Z,100660.94
2022-08-31T13:34:42.488Z,100662.16
2022-08-31T13:37:15.593Z,100658.28
2022-08-31T13:39:46.134Z,100659.63
2022-08-31T13:42:28.747Z,100644.81
2022-08-31T13:45:00.526Z,100646.50
2022-08-31T13:47:48.834Z,100644.91
2022-08-31T13:50:25.919Z,100643.72
2022-08-31T13:53:22.998Z,100645.53
2022-08-31T13:55:46.694Z,100647.66
2022-08-31T13:58:27.270Z,100645.72
2022-08-31T14:01:19.088Z,100643.13
2022-08-31T14:03:57.308Z,100644.31
2022-08-31T14:06:28.692Z,100650.13
2022-08-31T14:09:10.093Z,100640.16
2022-08-31T14:11:42.517Z,100641.56
2022-08-31T14:14:13.132Z,100637.63
2022-08-31T14:16:51.908Z,100635.69
2022-08-31T14:19:32.726Z,100634.28
2022-08-31T14:22:29.488Z,100632.47
2022-08-31T14:25:00.367Z,100636.13
2022-08-31T14:27:30.327Z,100631.03
2022-08-31T14:29:58.401Z,100633.69
2022-08-31T14:32:29.023Z,100623.63
2022-08-31T14:34:59.073Z,100630.47
2022-08-31T14:37:30.182Z,100617.16
2022-08-31T14:40:07.012Z,100620.97
2022-08-31T14:42:38.835Z,100618.41
2022-08-31T14:45:09.717Z,100603.53
2022-08-31T14:47:43.781Z,100611.75
2022-08-31T14:50:16.425Z,100606.59
2022-08-31T14:52:49.525Z,100600.59
2022-08-31T14:55:20.209Z,100601.19
2022-08-31T14:57:58.209Z,100603.28
2022-08-31T15:00:29.186Z,100595.19
2022-08-31T15:02:58.233Z,100594.72
2022-08-31T15:05:27.762Z,100595.66
2022-08-31T15:07:56.906Z,100596.22
2022-08-31T15:10:26.425Z,100594.53
2022-08-31T15:12:55.831Z,100597.34
2022-08-31T15:15:25.638Z,100598.38
2022-08-31T15:17:56.201Z,100598.91
2022-08-31T15:20:25.356Z,100600.50
2022-08-31T15:22:55.598Z,100586.22
2022-08-31T15:25:26.361Z,100601.59
2022-08-31T15:27:54.498Z,100600.38
2022-08-31T15:30:24.573Z,100599.25
2022-08-31T15:32:55.135Z,100599.06
2022-08-31T15:35:26.433Z,100590.16
2022-08-31T15:38:02.346Z,100586.69
2022-08-31T15:40:38.777Z,100582.47
2022-08-31T15:43:12.787Z,100584.19
2022-08-31T15:45:41.942Z,100582.25
2022-08-31T15:48:28.461Z,100579.88
2022-08-31T15:51:00.432Z,100592.75
2022-08-31T15:53:32.359Z,100585.63
2022-08-31T15:56:06.789Z,100581.03
2022-08-31T15:58:39.340Z,100576.28
2022-08-31T16:01:12.847Z,100570.56
2022-08-31T16:03:42.101Z,100577.63
2022-08-31T16:06:11.741Z,100572.00
2022-08-31T16:08:42.559Z,100567.81
2022-08-31T16:11:12.942Z,100566.91
2022-08-31T16:13:49.130Z,100566.59
2022-08-31T16:16:18.622Z,100558.78
2022-08-31T16:18:47.935Z,100552.16
2022-08-31T16:21:20.235Z,100551.97
2022-08-31T16:23:51.804Z,100555.41
2022-08-31T16:26:21.755Z,100559.94
2022-08-31T16:28:50.134Z,100553.00
2022-08-31T16:31:19.032Z,100548.38
2022-08-31T16:33:48.115Z,100547.84
2022-08-31T16:36:18.455Z,100547.28
2022-08-31T16:38:48.008Z,100545.28
2022-08-31T16:41:19.294Z,100549.22
2022-08-31T16:44:03.436Z,100546.72
2022-08-31T16:46:40.935Z,100555.50
2022-08-31T16:49:27.010Z,100558.22
2022-08-31T16:51:55.564Z,100549.63
2022-08-31T16:54:25.700Z,100552.06
2022-08-31T16:56:57.670Z,100543.28
2022-08-31T16:59:29.714Z,100556.91
2022-08-31T17:01:58.238Z,100553.56
2022-08-31T17:04:51.083Z,100558.25
2022-08-31T17:07:18.950Z,100546.84
2022-08-31T17:09:47.798Z,100551.66
2022-08-31T17:12:21.814Z,100549.13
2022-08-31T17:14:52.776Z,100552.38
2022-08-31T17:17:22.561Z,100560.97
2022-08-31T17:19:51.999Z,100562.53
2022-08-31T17:22:26.945Z,100560.88
2022-08-31T17:24:57.672Z,100564.16
2022-08-31T17:27:27.861Z,100570.31
2022-08-31T17:29:59.793Z,100564.09
2022-08-31T17:32:29.184Z,100570.69
2022-08-31T17:34:57.262Z,100567.94
2022-08-31T17:37:27.775Z,100565.56
2022-08-31T17:39:57.410Z,100572.75
2022-08-31T17:42:28.181Z,100581.19
2022-08-31T17:44:58.884Z,100584.03
2022-08-31T17:47:27.357Z,100587.19
2022-08-31T17:49:55.439Z,100585.81
2022-08-31T17:52:24.484Z,100587.75
2022-08-31T17:54:52.643Z,100586.69
2022-08-31T17:57:24.900Z,100591.22
2022-08-31T17:59:56.079Z,100586.78
2022-08-31T18:02:27.548Z,100598.19
2022-08-31T18:04:56.056Z,100593.75
2022-08-31T18:07:24.918Z,100606.59
2022-08-31T18:09:53.718Z,100598.06
2022-08-31T18:12:22.864Z,100602.25
2022-08-31T18:14:51.576Z,100598.16
2022-08-31T18:17:23.421Z,100598.78
2022-08-31T18:19:51.482Z,100607.28
2022-08-31T18:22:19.959Z,100597.53
2022-08-31T18:24:48.163Z,100605.22
2022-08-31T18:27:16.167Z,100604.34
2022-08-31T18:29:45.620Z,100611.06
2022-08-31T18:32:17.362Z,100614.03
2022-08-31T18:34:47.458Z,100620.50
2022-08-31T18:37:22.351Z,100617.13
2022-08-31T18:40:08.493Z,100624.00
2022-08-31T18:43:06.108Z,100630.44
2022-08-31T18:45:39.420Z,100633.41
2022-08-31T18:48:24.461Z,100634.59
2022-08-31T18:50:59.209Z,100633.13
2022-08-31T18:53:30.266Z,100642.63
2022-08-31T18:56:00.618Z,100642.97
2022-08-31T18:58:29.921Z,100641.28
2022-08-31T19:00:59.449Z,100646.56
2022-08-31T19:03:28.451Z,100642.56
2022-08-31T19:05:58.341Z,100644.34
2022-08-31T19:08:26.752Z,100647.34
2022-08-31T19:10:58.085Z,100638.34
2022-08-31T19:13:31.160Z,100632.34
2022-08-31T19:16:03.519Z,100637.13
2022-08-31T19:18:36.236Z,100634.69
2022-08-31T19:21:19.214Z,100638.31
2022-08-31T19:23:47.719Z,100636.16
2022-08-31T19:26:21.028Z,100637.31
2022-08-31T19:28:50.258Z,100634.91
2022-08-31T19:31:20.857Z,100632.63
2022-08-31T19:33:56.083Z,100632.84
2022-08-31T19:36:27.262Z,100633.31
2022-08-31T19:38:57.467Z,100644.06
2022-08-31T19:41:27.443Z,100640.56
2022-08-31T19:44:07.814Z,100642.09
2022-08-31T19:46:37.590Z,100644.22
2022-08-31T19:49:09.484Z,100640.22
2022-08-31T19:51:40.184Z,100638.66
2022-08-31T19:54:11.674Z,100638.66
2022-08-31T19:56:41.298Z,100637.16
2022-08-31T19:59:09.794Z,100633.06
2022-08-31T20:01:40.647Z,100640.97
2022-08-31T20:04:14.395Z,100631.69
2022-08-31T20:06:46.427Z,100637.56
2022-08-31T20:09:14.821Z,100642.84
2022-08-31T20:11:47.415Z,100644.16
2022-08-31T20:14:18.660Z,100645.09
2022-08-31T20:16:46.890Z,100642.53
2022-08-31T20:19:20.746Z,100646.78
2022-08-31T20:21:52.860Z,100638.44
2022-08-31T20:24:22.384Z,100644.69
2022-08-31T20:26:51.995Z,100645.16
2022-08-31T20:29:21.613Z,100645.53
2022-08-31T20:31:51.788Z,100637.19
2022-08-31T20:34:22.811Z,100645.72
2022-08-31T20:36:58.455Z,100639.19
2022-08-31T20:39:30.338Z,100644.16
2022-08-31T20:41:59.016Z,100649.19
2022-08-31T20:44:29.358Z,100642.22
2022-08-31T20:47:16.870Z,100639.81
2022-08-31T20:49:51.022Z,100639.50
2022-08-31T20:52:20.841Z,100641.41
2022-08-31T20:54:52.864Z,100643.50
2022-08-31T20:57:30.122Z,100643.72
2022-08-31T20:59:58.461Z,100651.72
2022-08-31T21:02:26.393Z,100652.69
2022-08-31T21:04:54.699Z,100643.94
2022-08-31T21:07:24.563Z,100649.81
2022-08-31T21:09:52.738Z,100648.34
2022-08-31T21:12:21.139Z,100656.06
2022-08-31T21:14:49.659Z,100646.88
2022-08-31T21:17:18.869Z,100653.44
2022-08-31T21:19:46.840Z,100646.03
2022-08-31T21:22:17.218Z,100655.63
2022-08-31T21:24:47.538Z,100663.22
2022-08-31T21:27:18.563Z,100665.31
2022-08-31T21:29:47.240Z,100656.69
2022-08-31T21:32:16.019Z,100653.44
2022-08-31T21:34:44.311Z,100650.47
2022-08-31T21:37:12.517Z,100655.44
2022-08-31T21:39:41.788Z,100666.34
2022-08-31T21:42:11.231Z,100656.16
2022-08-31T21:44:39.506Z,100662.69
2022-08-31T21:47:09.874Z,100660.69
2022-08-31T21:49:38.032Z,100668.59
2022-08-31T21:52:05.929Z,100664.47
2022-08-31T21:54:33.970Z,100663.31
2022-08-31T21:57:03.765Z,100661.13
2022-08-31T21:59:36.033Z,100658.25
2022-08-31T22:02:09.042Z,100658.69
2022-08-31T22:04:40.548Z,100665.84
2022-08-31T22:07:09.543Z,100665.09
2022-08-31T22:09:38.370Z,100662.69
2022-08-31T22:12:08.250Z,100663.91
2022-08-31T22:14:39.998Z,100666.84
2022-08-31T22:17:09.194Z,100664.84
2022-08-31T22:19:39.875Z,100667.22
2022-08-31T22:22:11.737Z,100671.00
2022-08-31T22:24:42.194Z,100668.34
2022-08-31T22:27:11.728Z,100670.09
2022-08-31T22:29:41.965Z,100673.16
2022-08-31T22:32:12.727Z,100671.59
2022-08-31T22:34:43.052Z,100668.19
2022-08-31T22:37:13.809Z,100665.31
2022-08-31T22:39:42.718Z,100667.88
2022-08-31T22:42:11.952Z,100667.44
2022-08-31T22:44:43.178Z,100671.31
2022-08-31T22:47:11.117Z,100674.16
2022-08-31T22:49:39.323Z,100669.06
2022-08-31T22:52:07.388Z,100672.81
2022-08-31T22:54:36.449Z,100680.00
2022-08-31T22:57:04.394Z,100667.97
2022-08-31T22:59:32.264Z,100677.00
2022-08-31T23:02:03.722Z,100674.94
2022-08-31T23:04:34.322Z,100678.69
2022-08-31T23:07:04.187Z,100675.88
2022-08-31T23:09:34.208Z,100670.69
2022-08-31T23:12:05.585Z,100662.28
2022-08-31T23:14:33.579Z,100666.63
2022-08-31T23:17:08.134Z,100671.00
2022-08-31T23:19:38.878Z,100670.56
2022-08-31T23:22:10.138Z,100662.28
2022-08-31T23:24:43.831Z,100665.50
2022-08-31T23:27:12.762Z,100659.75
2022-08-31T23:29:45.606Z,100661.66
2022-08-31T23:32:18.020Z,100665.13
2022-08-31T23:34:49.265Z,100666.25
2022-08-31T23:37:18.507Z,100667.47
2022-08-31T23:39:47.626Z,100666.41
2022-08-31T23:42:17.104Z,100674.75
2022-08-31T23:44:46.934Z,100667.84
2022-08-31T23:47:20.201Z,100656.72
2022-08-31T23:49:49.694Z,100664.75
2022-08-31T23:52:21.589Z,100662.41
2022-08-31T23:54:52.202Z,100664.56
2022-08-31T23:57:32.247Z,100660.19
